Time;durP1;ratioP1;P1;durP2;ratioP2;P2;SDS_P1;SDS_P2;PMS_P1;PMS_P2;Temp;Humidity;BMP_temperature;BMP_pressure;BME280_temperature;BME280_humidity;BME280_pressure;Samples;Min_cycle;Max_cycle;Signal;HPM_P1;HPM_P2
2022/04/03 00:01:15;;;;;;;;;19.00;18.00;;;;;5.42;47.32;101604.25;4993576;28;45344;-51
2022/04/03 00:03:41;;;;;;;;;24.25;20.25;;;;;5.35;46.92;101584.19;4992185;28;45236;-54
2022/04/03 00:06:07;;;;;;;;;31.25;25.00;;;;;5.38;47.38;101599.94;4973655;28;45909;-52
2022/04/03 00:08:33;;;;;;;;;15.00;15.00;;;;;5.35;47.14;101600.88;4993421;28;45409;-52
2022/04/03 00:11:02;;;;;;;;;23.25;19.25;;;;;5.32;47.08;101611.47;4992248;28;45375;-53
2022/04/03 00:13:27;;;;;;;;;15.25;15.25;;;;;5.20;48.20;101596.72;4981693;28;45269;-52
2022/04/03 00:15:53;;;;;;;;;16.25;14.00;;;;;5.23;47.77;101606.38;4972071;28;45370;-53
2022/04/03 00:18:18;;;;;;;;;12.00;12.00;;;;;5.19;47.72;101605.53;4972597;28;45861;-53
2022/04/03 00:20:46;;;;;;;;;19.50;16.25;;;;;5.17;47.63;101596.78;4972379;27;45350;-53
2022/04/03 00:23:11;;;;;;;;;7.75;6.50;;;;;5.23;47.30;101609.00;4969977;28;45244;-51
2022/04/03 00:25:38;;;;;;;;;14.00;12.00;;;;;5.23;48.02;101607.25;4987800;28;45998;-52
2022/04/03 00:28:03;;;;;;;;;20.00;16.75;;;;;5.17;47.79;101595.91;4973306;28;45339;-51
2022/04/03 00:30:29;;;;;;;;;19.75;14.25;;;;;5.09;48.36;101603.97;4973730;28;45349;-51
2022/04/03 00:32:54;;;;;;;;;15.00;15.00;;;;;5.09;47.95;101606.63;4973856;28;45505;-51
2022/04/03 00:35:20;;;;;;;;;17.25;15.50;;;;;5.02;48.47;101608.47;4972940;28;45981;-51
2022/04/03 00:37:46;;;;;;;;;15.50;14.75;;;;;5.04;48.61;101605.81;4972034;28;45628;-52
2022/04/03 00:40:12;;;;;;;;;14.00;14.00;;;;;5.08;47.93;101607.50;4974291;28;45440;-52
2022/04/03 00:42:39;;;;;;;;;11.75;10.75;;;;;4.86;48.51;101563.94;4995946;27;45594;-51
2022/04/03 00:45:06;;;;;;;;;17.00;15.00;;;;;5.03;49.02;101606.69;4995588;27;46136;-51
2022/04/03 00:47:32;;;;;;;;;14.75;14.75;;;;;4.99;49.13;101607.66;4995763;27;45428;-52
2022/04/03 00:50:00;;;;;;;;;14.25;12.00;;;;;4.98;48.83;101603.28;4996138;28;45453;-50
2022/04/03 00:52:26;;;;;;;;;21.25;18.25;;;;;5.04;48.57;101616.34;4994505;27;45656;-51
2022/04/03 00:54:52;;;;;;;;;11.75;11.00;;;;;5.06;48.51;101605.78;4995442;27;46351;-51
2022/04/03 00:57:20;;;;;;;;;16.00;12.50;;;;;5.06;48.73;101604.00;4973545;27;45312;-53
2022/04/03 00:59:48;;;;;;;;;11.75;11.00;;;;;5.07;49.02;101600.47;4976203;28;45395;-51
2022/04/03 01:02:13;;;;;;;;;18.50;14.50;;;;;5.11;49.44;101604.81;5040821;28;45487;-52
2022/04/03 01:04:39;;;;;;;;;17.00;15.00;;;;;5.14;48.61;101607.38;5078898;27;45534;-52
2022/04/03 01:07:06;;;;;;;;;17.75;15.50;;;;;5.18;48.80;101606.44;5079285;27;45267;-52
2022/04/03 01:09:31;;;;;;;;;12.50;12.50;;;;;5.18;49.06;101603.78;5094590;27;45508;-52
2022/04/03 01:11:57;;;;;;;;;15.00;15.00;;;;;5.10;49.21;101595.16;5079300;27;45419;-52
2022/04/03 01:14:39;;;;;;;;;14.00;14.00;;;;;5.08;49.30;101593.44;4994948;28;46029;-49
2022/04/03 01:17:07;;;;;;;;;17.00;15.00;;;;;5.04;49.87;101600.53;4974494;28;45470;-52
2022/04/03 01:19:33;;;;;;;;;15.50;12.50;;;;;5.03;48.90;101598.78;4976367;28;45683;-51
2022/04/03 01:21:58;;;;;;;;;16.00;12.50;;;;;4.88;49.18;101563.03;4976211;28;45238;-55
2022/04/03 01:24:25;;;;;;;;;16.75;14.00;;;;;5.05;49.73;101597.00;4975558;28;45301;-52
2022/04/03 01:26:51;;;;;;;;;17.00;16.25;;;;;5.09;49.21;101603.09;4974579;28;45724;-51
2022/04/03 01:29:17;;;;;;;;;16.75;16.75;;;;;5.10;49.25;101600.44;4991898;27;45286;-53
2022/04/03 01:31:46;;;;;;;;;17.25;14.75;;;;;5.05;49.54;101604.91;4989251;27;45496;-51
2022/04/03 01:34:13;;;;;;;;;17.50;16.00;;;;;4.97;49.90;101601.53;4971218;28;47555;-51
2022/04/03 01:36:38;;;;;;;;;17.50;14.25;;;;;4.95;50.35;101605.97;4956109;28;45224;-53
2022/04/03 01:39:04;;;;;;;;;22.25;19.75;;;;;4.88;50.48;101605.19;4956570;28;45295;-52
2022/04/03 01:41:29;;;;;;;;;12.50;12.50;;;;;4.79;50.68;101594.78;4956565;28;45534;-52
2022/04/03 01:43:55;;;;;;;;;19.50;18.50;;;;;4.83;51.12;101601.78;4956154;28;46229;-51
2022/04/03 01:46:20;;;;;;;;;15.50;14.00;;;;;4.86;50.75;101601.72;4970768;28;45279;-51
2022/04/03 01:48:45;;;;;;;;;14.50;14.50;;;;;4.88;50.61;101597.28;4956132;28;45311;-51
2022/04/03 01:51:12;;;;;;;;;17.75;16.50;;;;;4.93;50.60;101591.94;4970648;28;45578;-53
2022/04/03 01:53:37;;;;;;;;;13.75;13.75;;;;;5.03;50.92;101598.78;4995144;28;45929;-51
2022/04/03 01:56:07;;;;;;;;;18.25;16.00;;;;;5.03;49.92;101597.03;4995119;28;45270;-52
2022/04/03 01:58:34;;;;;;;;;19.75;14.50;;;;;4.91;49.90;101577.91;4977876;28;45214;-52
2022/04/03 02:01:00;;;;;;;;;17.00;14.00;;;;;5.06;50.61;101596.09;5004668;28;45269;-51
2022/04/03 02:03:26;;;;;;;;;16.00;14.25;;;;;5.11;50.80;101602.19;5077953;27;46633;-52
2022/04/03 02:05:53;;;;;;;;;20.75;16.00;;;;;5.11;50.62;101602.19;5078080;27;45288;-52
2022/04/03 02:08:19;;;;;;;;;21.00;19.00;;;;;5.09;50.18;101603.97;4967172;28;45649;-52
2022/04/03 02:10:45;;;;;;;;;14.75;14.75;;;;;5.09;50.75;101603.09;4956123;28;45889;-53
2022/04/03 02:13:11;;;;;;;;;15.75;12.25;;;;;4.99;50.18;101576.88;4971709;28;46994;-51
2022/04/03 02:15:37;;;;;;;;;17.25;12.00;;;;;5.04;50.56;101595.25;4973665;28;45493;-51
2022/04/03 02:18:02;;;;;;;;;15.00;14.00;;;;;5.11;50.25;101591.63;4975347;28;45288;-51
2022/04/03 02:20:28;;;;;;;;;16.75;12.25;;;;;5.15;50.55;101601.22;4988440;28;45589;-52
2022/04/03 02:22:53;;;;;;;;;22.75;17.75;;;;;5.16;49.81;101592.41;4972508;28;45666;-51
2022/04/03 02:25:18;;;;;;;;;14.50;12.00;;;;;5.20;49.82;101602.00;4972992;28;45180;-51
2022/04/03 02:27:46;;;;;;;;;16.50;14.25;;;;;5.22;50.16;101602.88;4974791;28;45354;-52
2022/04/03 02:30:13;;;;;;;;;17.50;17.00;;;;;5.19;49.37;101588.84;4975202;28;45266;-50
2022/04/03 02:32:40;;;;;;;;;9.00;9.00;;;;;5.10;50.21;101589.91;4974504;28;45456;-51
2022/04/03 02:35:10;;;;;;;;;16.00;14.00;;;;;5.14;49.71;101582.78;4974914;28;45394;-52
2022/04/03 02:37:38;;;;;;;;;15.50;14.00;;;;;5.16;50.30;101594.19;4975221;27;45298;-51
2022/04/03 02:40:06;;;;;;;;;18.00;15.75;;;;;5.06;50.39;101596.09;4974379;28;45532;-53
2022/04/03 02:42:32;;;;;;;;;10.50;7.75;;;;;5.03;51.22;101602.28;4938403;28;47619;-53
2022/04/03 02:44:58;;;;;;;;;25.50;19.25;;;;;5.01;50.92;101597.94;4953839;28;45458;-51
2022/04/03 02:47:23;;;;;;;;;15.75;14.00;;;;;4.95;51.13;101590.16;4955319;28;45484;-51
2022/04/03 02:49:53;;;;;;;;;13.50;13.50;;;;;4.87;51.28;101576.22;4955650;28;45377;-51
2022/04/03 02:52:20;;;;;;;;;19.75;14.25;;;;;4.94;51.63;101593.66;4970179;28;46938;-50
2022/04/03 02:54:46;;;;;;;;;13.25;13.00;;;;;4.87;51.50;101597.31;4955285;28;45425;-51
2022/04/03 02:57:12;;;;;;;;;14.00;11.00;;;;;4.83;51.34;101585.97;4959288;28;45456;-50
2022/04/03 02:59:41;;;;;;;;;18.50;14.50;;;;;4.80;52.10;101596.53;4973661;28;45466;-54
2022/04/03 03:02:06;;;;;;;;;11.00;11.00;;;;;4.88;51.80;101605.19;5033791;28;45256;-52
2022/04/03 03:04:32;;;;;;;;;19.25;17.00;;;;;4.86;51.72;101600.84;5077733;28;45239;-51
2022/04/03 03:06:57;;;;;;;;;17.25;12.25;;;;;4.89;51.26;101606.06;5078014;27;46112;-51
2022/04/03 03:09:23;;;;;;;;;16.75;14.75;;;;;4.91;52.37;101614.81;5076301;28;45504;-51
2022/04/03 03:11:49;;;;;;;;;18.00;14.75;;;;;4.85;51.74;101617.56;5076979;27;46357;-49
2022/04/03 03:14:15;;;;;;;;;15.50;15.00;;;;;4.84;51.44;101613.19;5072179;27;45438;-53
2022/04/03 03:16:40;;;;;;;;;11.00;11.00;;;;;4.78;51.81;101613.25;4975528;28;45415;-52
2022/04/03 03:19:05;;;;;;;;;20.25;15.50;;;;;4.83;51.69;101622.00;4994572;27;45529;-53
2022/04/03 03:21:31;;;;;;;;;14.50;14.25;;;;;4.88;51.50;101606.97;4993917;28;46211;-53
2022/04/03 03:23:56;;;;;;;;;14.00;12.25;;;;;4.93;51.62;101623.56;4993776;27;45291;-52
2022/04/03 03:26:21;;;;;;;;;17.50;12.75;;;;;4.91;52.06;101625.34;4993933;27;45423;-52
2022/04/03 03:28:47;;;;;;;;;13.00;13.00;;;;;4.96;51.88;101621.75;4994061;27;45591;-53
2022/04/03 03:31:13;;;;;;;;;15.50;12.25;;;;;4.99;51.41;101632.25;4993662;28;46061;-51
2022/04/03 03:33:38;;;;;;;;;10.50;10.50;;;;;4.99;51.36;101624.34;4978057;28;45527;-54
2022/04/03 03:36:05;;;;;;;;;10.75;10.75;;;;;4.93;51.39;101624.44;4989316;27;45803;-53
2022/04/03 03:38:31;;;;;;;;;12.50;8.50;;;;;4.92;51.11;101632.38;4974454;28;45410;-52
2022/04/03 03:40:56;;;;;;;;;12.50;12.25;;;;;4.89;51.42;101625.38;4975898;28;45429;-52
2022/04/03 03:43:21;;;;;;;;;17.50;10.75;;;;;4.97;50.67;101626.13;4973969;28;45227;-52
2022/04/03 03:45:47;;;;;;;;;17.50;15.75;;;;;4.86;52.14;101614.03;4973836;28;45407;-50
2022/04/03 03:48:12;;;;;;;;;10.50;10.50;;;;;4.77;52.43;101627.34;4974226;28;45557;-53
2022/04/03 03:50:38;;;;;;;;;15.50;15.25;;;;;4.63;52.70;101614.38;4974055;28;45296;-51
2022/04/03 03:53:04;;;;;;;;;17.50;15.00;;;;;4.66;52.56;101625.72;4969886;28;45285;-52
2022/04/03 03:55:30;;;;;;;;;12.00;12.00;;;;;4.57;52.73;101612.72;4973706;28;45436;-52
2022/04/03 03:57:55;;;;;;;;;12.00;12.00;;;;;4.73;52.86;101627.41;4972741;28;45665;-52
2022/04/03 04:00:21;;;;;;;;;13.00;13.00;;;;;4.67;52.30;101609.03;4973015;27;45434;-53
2022/04/03 04:02:46;;;;;;;;;13.00;11.75;;;;;4.82;51.71;101626.41;4976380;28;45369;-55
2022/04/03 04:05:12;;;;;;;;;10.50;10.50;;;;;4.79;52.20;101620.28;4974023;28;45350;-50
2022/04/03 04:07:47;;;;;;;;;17.50;13.00;;;;;4.71;52.54;101623.91;4974464;28;45423;-52
2022/04/03 04:10:15;;;;;;;;;12.50;10.75;;;;;4.64;51.62;101627.53;4973986;28;46169;-51
2022/04/03 04:12:42;;;;;;;;;10.75;10.75;;;;;4.66;52.60;101625.72;4973799;28;45426;-51
2022/04/03 04:15:09;;;;;;;;;14.00;14.00;;;;;4.65;52.64;101623.13;4975127;28;45397;-51
2022/04/03 04:17:37;;;;;;;;;15.00;14.00;;;;;4.66;52.51;101638.91;4972837;28;45466;-51
2022/04/03 04:20:12;;;;;;;;;14.50;14.50;;;;;4.62;52.55;101628.44;4976833;28;45828;-50
2022/04/03 04:22:39;;;;;;;;;16.25;10.00;;;;;4.56;53.00;101624.16;5069434;27;45320;-50
2022/04/03 04:25:05;;;;;;;;;10.25;10.25;;;;;4.55;52.83;101654.00;5079734;27;45357;-53
2022/04/03 04:27:31;;;;;;;;;15.00;13.00;;;;;4.42;53.20;101634.00;5079902;27;45299;-51
2022/04/03 04:29:56;;;;;;;;;12.25;12.25;;;;;4.28;53.26;101636.81;5079230;28;45624;-51
2022/04/03 04:32:22;;;;;;;;;10.50;10.25;;;;;4.25;53.02;101654.44;5066712;27;45666;-53
2022/04/03 04:34:50;;;;;;;;;10.50;10.50;;;;;4.21;53.92;101652.72;4972155;28;45494;-50
2022/04/03 04:37:17;;;;;;;;;10.25;10.25;;;;;4.06;53.30;101638.00;4976097;27;45365;-51
2022/04/03 04:39:43;;;;;;;;;13.75;11.00;;;;;4.10;53.59;101644.97;4974408;28;46894;-51
2022/04/03 04:42:09;;;;;;;;;12.50;11.50;;;;;4.14;53.97;101663.31;4976413;28;45211;-51
2022/04/03 04:44:34;;;;;;;;;14.75;12.75;;;;;4.13;53.20;101660.72;4976444;28;45200;-51
2022/04/03 04:47:01;;;;;;;;;9.00;7.50;;;;;4.09;53.71;101664.28;4976582;27;45218;-53
2022/04/03 04:49:27;;;;;;;;;10.00;8.00;;;;;4.08;53.67;101660.78;4971935;28;45613;-55
2022/04/03 04:51:52;;;;;;;;;10.25;10.25;;;;;4.09;53.54;101664.28;4991678;28;45940;-53
2022/04/03 04:54:18;;;;;;;;;16.75;12.25;;;;;4.03;53.82;101665.22;4995833;28;45421;-51
2022/04/03 04:56:43;;;;;;;;;14.50;11.75;;;;;3.87;54.23;101668.91;4995981;27;45460;-54
2022/04/03 04:59:08;;;;;;;;;8.75;8.00;;;;;3.81;53.94;101658.47;4995947;28;46192;-51
2022/04/03 05:01:34;;;;;;;;;4.00;2.00;;;;;3.79;54.44;101670.78;5025060;27;45401;-54
2022/04/03 05:03:59;;;;;;;;;10.00;10.00;;;;;3.71;53.92;101667.34;5079213;27;45421;-51
2022/04/03 05:06:27;;;;;;;;;16.00;12.50;;;;;3.74;53.99;101677.84;5070859;28;45561;-52
2022/04/03 05:08:53;;;;;;;;;10.00;7.50;;;;;3.71;53.89;101686.66;4977516;28;46319;-50
2022/04/03 05:11:19;;;;;;;;;15.50;13.50;;;;;3.45;54.67;101663.22;4995874;28;45259;-50
2022/04/03 05:13:46;;;;;;;;;14.00;11.00;;;;;3.41;54.17;101669.41;4996020;27;45415;-51
2022/04/03 05:16:12;;;;;;;;;14.50;13.00;;;;;3.48;54.34;101689.50;4995075;27;45260;-52
2022/04/03 05:18:40;;;;;;;;;12.00;11.00;;;;;3.48;54.51;101693.88;4995716;28;45320;-52
2022/04/03 05:21:08;;;;;;;;;13.75;13.75;;;;;3.40;54.74;101691.34;4978111;28;45556;-52
2022/04/03 05:23:33;;;;;;;;;11.75;11.75;;;;;3.15;55.06;101666.16;4994388;28;45415;-50
2022/04/03 05:25:59;;;;;;;;;12.25;11.25;;;;;2.98;55.11;101658.38;4982372;27;45547;-49
2022/04/03 05:28:26;;;;;;;;;10.00;10.00;;;;;3.14;55.05;101675.78;4992546;28;46086;-50
2022/04/03 05:30:52;;;;;;;;;10.25;10.25;;;;;3.06;55.15;101676.72;4993855;27;45263;-51
2022/04/03 05:33:18;;;;;;;;;13.25;11.00;;;;;3.16;55.22;101696.81;4995531;28;45197;-52
2022/04/03 05:35:44;;;;;;;;;15.25;11.00;;;;;3.15;55.32;101695.06;4994383;28;45569;-52
2022/04/03 05:38:09;;;;;;;;;20.25;12.00;;;;;3.13;55.39;101699.47;4995401;28;45356;-51
2022/04/03 05:40:35;;;;;;;;;13.50;11.75;;;;;3.13;55.19;101691.56;4994062;27;45465;-51
2022/04/03 05:43:00;;;;;;;;;16.25;14.00;;;;;3.15;55.32;101708.19;4995464;28;45444;-52
2022/04/03 05:45:26;;;;;;;;;11.50;11.50;;;;;3.04;54.93;101691.63;4980595;28;45788;-53
2022/04/03 05:47:53;;;;;;;;;16.75;15.25;;;;;3.07;55.03;101699.50;4974474;28;47788;-51
2022/04/03 05:50:19;;;;;;;;;14.25;11.00;;;;;2.99;55.22;101706.53;4975613;28;45306;-53
2022/04/03 05:52:47;;;;;;;;;13.25;11.50;;;;;2.94;54.76;101699.56;4974296;28;45454;-50
2022/04/03 05:55:14;;;;;;;;;18.25;13.00;;;;;2.92;54.95;101695.22;4975919;28;45533;-53
2022/04/03 05:57:40;;;;;;;;;13.50;13.50;;;;;2.98;54.53;101705.69;4973862;28;47412;-51
2022/04/03 06:00:08;;;;;;;;;13.00;8.25;;;;;3.03;54.81;101703.03;4973926;28;45371;-53
2022/04/03 06:02:54;;;;;;;;;11.25;10.00;;;;;2.96;54.65;101700.44;5022916;28;45489;-50
2022/04/03 06:05:24;;;;;;;;;15.00;9.50;;;;;2.91;54.79;101699.59;4986375;28;45457;-52
2022/04/03 06:07:50;;;;;;;;;12.00;12.00;;;;;3.04;54.39;101704.78;4993506;28;46147;-49
2022/04/03 06:10:18;;;;;;;;;13.75;13.75;;;;;3.12;53.91;101718.72;4993738;27;45382;-50
2022/04/03 06:13:01;;;;;;;;;19.00;15.75;;;;;3.11;54.11;101711.72;4994344;27;45299;-52
2022/04/03 06:15:33;;;;;;;;;11.50;11.50;;;;;3.12;54.17;101729.22;5004111;28;45499;-51
2022/04/03 06:17:59;;;;;;;;;12.75;10.25;;;;;3.14;53.77;101738.00;4974457;28;45801;-51
2022/04/03 06:20:25;;;;;;;;;15.00;14.00;;;;;3.14;54.07;101732.75;4972924;27;45402;-50
2022/04/03 06:22:51;;;;;;;;;10.00;10.00;;;;;3.09;54.42;101737.16;4981634;28;45386;-51
2022/04/03 06:25:17;;;;;;;;;18.75;15.00;;;;;3.15;53.75;101739.75;4995476;28;45380;-52
2022/04/03 06:27:43;;;;;;;;;17.00;13.00;;;;;3.12;54.21;101745.88;4994132;28;47371;-54
2022/04/03 06:30:08;;;;;;;;;11.25;8.50;;;;;3.12;54.19;101745.00;4994653;27;45424;-51
2022/04/03 06:32:34;;;;;;;;;17.25;10.75;;;;;3.06;54.16;101734.53;4993668;27;45384;-50
2022/04/03 06:35:00;;;;;;;;;10.75;10.75;;;;;3.12;54.09;101751.13;4994289;28;45293;-52
2022/04/03 06:37:25;;;;;;;;;12.75;11.75;;;;;3.11;54.34;101753.78;4993498;28;46024;-54
2022/04/03 06:39:50;;;;;;;;;11.25;11.25;;;;;3.17;53.82;101746.72;4975462;28;45327;-52
2022/04/03 06:42:16;;;;;;;;;11.75;11.75;;;;;3.24;53.85;101753.66;4995858;28;45281;-52
2022/04/03 06:44:41;;;;;;;;;14.25;10.00;;;;;3.25;52.97;101757.16;4994275;28;45570;-52
2022/04/03 06:47:07;;;;;;;;;14.25;11.00;;;;;3.13;52.80;101752.91;4993344;27;45335;-52
2022/04/03 06:49:33;;;;;;;;;16.00;14.00;;;;;3.16;53.26;101755.50;4994907;27;45274;-52
2022/04/03 06:52:00;;;;;;;;;13.00;10.00;;;;;3.20;53.37;101753.72;4994835;28;45482;-53
2022/04/03 06:54:26;;;;;;;;;15.50;13.25;;;;;3.20;52.93;101758.97;4995266;27;45829;-52
2022/04/03 06:56:54;;;;;;;;;13.00;13.00;;;;;3.22;52.90;101762.47;4979509;28;47630;-51
2022/04/03 06:59:20;;;;;;;;;14.25;14.25;;;;;3.29;52.61;101761.53;4994774;27;45373;-50
2022/04/03 07:01:46;;;;;;;;;10.25;9.00;;;;;3.30;52.12;101750.13;4985689;28;45285;-53
2022/04/03 07:04:11;;;;;;;;;17.75;12.50;;;;;3.26;51.83;101748.44;4973179;28;45399;-52
2022/04/03 07:06:36;;;;;;;;;11.75;10.50;;;;;3.37;52.01;101761.47;4974430;28;45390;-53
2022/04/03 07:09:02;;;;;;;;;13.00;13.00;;;;;3.46;52.07;101771.91;4974379;27;45421;-52
2022/04/03 07:11:27;;;;;;;;;10.00;10.00;;;;;3.35;51.68;101742.22;4974575;28;45330;-50
2022/04/03 07:13:53;;;;;;;;;20.75;14.25;;;;;3.60;51.35;101770.03;4974607;28;45252;-52
2022/04/03 07:16:18;;;;;;;;;12.75;11.00;;;;;3.68;51.36;101777.88;4974529;28;46323;-52
2022/04/03 07:18:45;;;;;;;;;15.00;13.50;;;;;3.71;51.20;101768.19;4968318;28;45326;-56
2022/04/03 07:21:10;;;;;;;;;13.00;11.00;;;;;3.81;51.50;101776.91;4990266;28;45360;-53
2022/04/03 07:23:36;;;;;;;;;12.00;11.00;;;;;3.87;50.79;101778.56;4994480;27;45626;-52
2022/04/03 07:26:01;;;;;;;;;12.50;12.50;;;;;3.76;50.66;101786.56;4994200;28;45310;-53
2022/04/03 07:28:27;;;;;;;;;16.50;11.50;;;;;3.89;50.35;101789.97;4993735;27;45254;-53
2022/04/03 07:30:52;;;;;;;;;14.50;11.50;;;;;3.91;50.54;101781.19;4994234;28;45936;-52
2022/04/03 07:33:21;;;;;;;;;10.50;10.50;;;;;4.00;50.03;101791.59;4994532;27;45411;-51
2022/04/03 07:35:49;;;;;;;;;10.75;10.25;;;;;3.92;49.85;101767.13;4979041;28;45915;-53
2022/04/03 07:38:14;;;;;;;;;13.00;13.00;;;;;4.02;50.18;101783.69;4990534;28;45423;-54
2022/04/03 07:40:40;;;;;;;;;11.75;10.75;;;;;4.09;49.55;101785.38;4992626;27;45405;-51
2022/04/03 07:43:06;;;;;;;;;10.75;10.75;;;;;4.09;49.75;101788.88;4994011;28;45282;-50
2022/04/03 07:45:32;;;;;;;;;11.00;11.00;;;;;4.18;49.19;101782.66;4993754;28;45956;-50
2022/04/03 07:47:58;;;;;;;;;13.25;8.50;;;;;4.14;49.16;101781.81;4992561;27;45259;-55
2022/04/03 07:50:25;;;;;;;;;11.75;10.00;;;;;4.28;49.10;101778.16;4993629;28;45239;-50
2022/04/03 07:52:51;;;;;;;;;10.00;10.00;;;;;4.22;48.28;101758.03;4977681;28;45417;-51
2022/04/03 07:55:18;;;;;;;;;13.75;11.25;;;;;4.50;48.42;101792.81;4974171;28;46630;-53
2022/04/03 07:57:44;;;;;;;;;10.50;9.00;;;;;4.56;48.05;101790.13;4974075;28;45379;-52
2022/04/03 08:00:12;;;;;;;;;7.50;7.50;;;;;4.66;47.75;101796.13;4972980;28;45437;-51
2022/04/03 08:02:39;;;;;;;;;9.00;8.00;;;;;4.73;47.43;101809.22;5055240;28;45529;-55
2022/04/03 08:05:05;;;;;;;;;12.25;10.00;;;;;4.73;47.16;101801.31;5074630;28;46930;-51
2022/04/03 08:07:38;;;;;;;;;11.00;10.00;;;;;4.82;47.17;101812.63;5061091;27;45374;-54
2022/04/03 08:10:08;;;;;;;;;8.50;8.50;;;;;4.88;46.28;101813.44;4977549;27;45389;-53
2022/04/03 08:12:36;;;;;;;;;7.50;7.50;;;;;4.92;47.18;101808.97;4973869;28;45493;-56
2022/04/03 08:15:04;;;;;;;;;8.00;8.00;;;;;4.94;47.10;101804.56;4972887;28;45387;-54
2022/04/03 08:17:30;;;;;;;;;7.00;7.00;;;;;4.94;45.03;101812.47;4973524;28;45335;-54
2022/04/03 08:19:55;;;;;;;;;10.00;8.00;;;;;4.89;45.70;101807.25;4972503;28;45330;-56
2022/04/03 08:22:21;;;;;;;;;2.50;2.00;;;;;4.86;45.58;101816.97;4974114;28;45577;-51
2022/04/03 08:24:48;;;;;;;;;7.00;7.00;;;;;4.83;45.90;101809.13;4971932;28;45819;-52
2022/04/03 08:27:13;;;;;;;;;10.00;10.00;;;;;4.96;46.04;101818.63;4982430;28;45746;-52
2022/04/03 08:29:39;;;;;;;;;10.50;10.00;;;;;5.00;45.98;101825.56;4991579;28;45410;-53
2022/04/03 08:32:04;;;;;;;;;6.50;4.50;;;;;4.93;45.25;101823.91;4993344;28;45782;-53
2022/04/03 08:34:30;;;;;;;;;8.50;7.75;;;;;4.98;46.30;101822.09;4992546;27;45380;-53
2022/04/03 08:36:55;;;;;;;;;7.75;7.75;;;;;5.10;45.27;101813.16;4992724;28;45519;-50
2022/04/03 08:39:21;;;;;;;;;11.00;8.75;;;;;5.09;45.08;101808.78;4992793;28;45326;-52
2022/04/03 08:41:47;;;;;;;;;12.25;10.25;;;;;5.16;44.81;101800.72;4986907;27;45638;-52
2022/04/03 08:44:12;;;;;;;;;6.00;4.00;;;;;5.36;44.20;101828.59;4983693;28;46127;-51
2022/04/03 08:46:41;;;;;;;;;8.75;5.50;;;;;5.43;44.33;101824.97;4993118;27;45451;-51
2022/04/03 08:49:08;;;;;;;;;7.75;7.75;;;;;5.49;43.33;101809.06;4993113;28;45413;-52
2022/04/03 08:51:37;;;;;;;;;9.50;7.25;;;;;5.82;43.21;101808.47;4992865;27;45293;-52
2022/04/03 08:54:04;;;;;;;;;10.50;10.50;;;;;6.10;42.39;101813.31;4992366;28;45962;-51
2022/04/03 08:56:30;;;;;;;;;4.00;4.00;;;;;6.36;41.21;101811.06;4992278;27;45245;-52
2022/04/03 08:58:55;;;;;;;;;11.25;7.50;;;;;6.55;39.89;101822.16;4984999;27;45445;-52
2022/04/03 09:01:21;;;;;;;;;11.25;7.25;;;;;6.71;40.03;101814.78;5003718;28;45756;-53
2022/04/03 09:03:47;;;;;;;;;7.50;7.50;;;;;6.84;39.50;101815.41;5078231;28;45243;-52
2022/04/03 09:06:17;;;;;;;;;6.00;5.00;;;;;7.04;37.85;101816.72;5079202;27;45242;-52
2022/04/03 09:08:43;;;;;;;;;5.00;5.00;;;;;7.42;37.99;101811.44;5079481;27;45358;-53
2022/04/03 09:11:10;;;;;;;;;7.50;5.00;;;;;7.76;37.90;101806.22;5078072;28;45529;-52
2022/04/03 09:13:36;;;;;;;;;1.50;1.00;;;;;8.01;36.57;101786.13;5078952;28;45389;-53
2022/04/03 09:16:02;;;;;;;;;6.00;4.75;;;;;8.07;34.63;101791.25;5035670;27;45658;-51
2022/04/03 09:18:50;;;;;;;;;6.00;4.00;;;;;8.40;34.04;101810.72;4984182;28;45302;-52
2022/04/03 09:21:26;;;;;;;;;6.00;6.00;;;;;8.68;33.16;101797.53;4995544;27;45461;-50
2022/04/03 09:24:06;;;;;;;;;2.50;2.50;;;;;8.92;31.89;101809.22;4995232;28;45351;-52
2022/04/03 09:26:34;;;;;;;;;4.50;2.00;;;;;9.11;30.22;101802.47;4994884;28;45317;-56
2022/04/03 09:29:07;;;;;;;;;3.25;3.25;;;;;9.32;28.28;101800.91;4993559;28;45381;-55
2022/04/03 09:31:33;;;;;;;;;0.50;0.50;;;;;9.56;29.90;101801.03;4995363;28;45263;-52
2022/04/03 09:34:04;;;;;;;;;4.50;4.50;;;;;9.68;29.40;101801.50;4981143;27;45271;-52
2022/04/03 09:36:33;;;;;;;;;3.00;3.00;;;;;9.86;30.43;101789.38;4981670;28;45217;-54
2022/04/03 09:39:16;;;;;;;;;4.00;1.75;;;;;10.27;27.75;101789.75;4975233;28;45356;-52
2022/04/03 09:41:59;;;;;;;;;2.00;2.00;;;;;10.44;26.50;101797.16;4975389;28;45409;-52
2022/04/03 09:44:34;;;;;;;;;3.00;3.00;;;;;10.41;28.35;101795.44;4974051;28;45353;-52
2022/04/03 09:47:32;;;;;;;;;3.00;3.00;;;;;10.68;27.64;101790.94;4975285;28;45382;-54
2022/04/03 09:50:04;;;;;;;;;3.00;3.00;;;;;10.77;27.66;101790.56;4974537;28;45491;-53
2022/04/03 09:52:35;;;;;;;;;2.00;2.00;;;;;10.69;27.24;101794.47;4975123;28;45395;-53
2022/04/03 09:55:13;;;;;;;;;6.00;2.00;;;;;10.67;27.54;101788.31;4976754;28;46265;-54
2022/04/03 09:57:38;;;;;;;;;2.25;2.25;;;;;10.63;27.61;101785.78;4995571;28;45482;-53
2022/04/03 10:00:05;;;;;;;;;3.00;3.00;;;;;10.52;27.26;101790.63;4995365;27;45321;-53
2022/04/03 10:02:32;;;;;;;;;1.00;0.00;;;;;10.33;28.62;101794.88;5058036;28;45342;-53
2022/04/03 10:04:59;;;;;;;;;2.75;1.75;;;;;10.41;28.70;101784.81;5064736;27;45474;-52
2022/04/03 10:07:24;;;;;;;;;6.00;3.00;;;;;10.53;28.55;101781.72;4977266;28;45453;-53
2022/04/03 10:09:53;;;;;;;;;2.25;0.00;;;;;10.39;28.31;101794.66;4975645;28;45324;-51
2022/04/03 10:12:21;;;;;;;;;1.00;1.00;;;;;10.26;28.48;101786.25;4971898;28;46136;-54
2022/04/03 10:14:51;;;;;;;;;1.00;1.00;;;;;10.12;29.37;101795.59;4989387;28;45476;-52
2022/04/03 10:17:19;;;;;;;;;1.50;0.00;;;;;10.08;29.10;101784.22;4973477;28;45380;-54
2022/04/03 10:19:45;;;;;;;;;1.25;1.25;;;;;9.87;28.59;101796.44;4973759;28;45466;-53
2022/04/03 10:22:20;;;;;;;;;1.75;1.75;;;;;9.85;29.21;101794.75;4973794;28;45288;-53
2022/04/03 10:24:49;;;;;;;;;2.00;2.00;;;;;9.88;28.48;101790.19;4974813;28;46119;-55
2022/04/03 10:27:20;;;;;;;;;3.00;3.00;;;;;9.63;29.57;101771.56;4971487;28;45616;-54
2022/04/03 10:29:47;;;;;;;;;2.00;2.00;;;;;9.51;29.62;101789.72;4993057;27;45425;-52
2022/04/03 10:32:27;;;;;;;;;1.25;1.25;;;;;9.49;30.16;101791.53;4994706;28;45349;-52
2022/04/03 10:34:57;;;;;;;;;2.25;2.25;;;;;9.41;29.21;101791.78;4992854;28;48275;-55
2022/04/03 10:37:32;;;;;;;;;2.00;2.00;;;;;9.27;30.37;101765.69;4994288;28;45315;-54
2022/04/03 10:40:04;;;;;;;;;2.00;2.00;;;;;9.39;30.11;101773.25;4993394;27;45339;-53
2022/04/03 10:42:30;;;;;;;;;2.00;2.00;;;;;9.17;30.41;101774.84;4993435;27;45582;-54
2022/04/03 10:45:10;;;;;;;;;2.25;2.00;;;;;9.01;30.87;101782.41;4971294;28;46882;-54
2022/04/03 10:47:36;;;;;;;;;2.50;2.00;;;;;9.16;30.79;101775.78;4974624;28;45416;-53
2022/04/03 10:50:04;;;;;;;;;2.00;2.00;;;;;8.98;30.77;101763.91;4974487;28;45443;-54
2022/04/03 10:52:35;;;;;;;;;2.75;1.25;;;;;9.01;31.17;101773.59;4973843;28;45533;-56
2022/04/03 10:55:02;;;;;;;;;4.50;4.50;;;;;9.04;31.01;101770.84;4977406;28;46880;-52
2022/04/03 10:57:41;;;;;;;;;6.50;5.75;;;;;9.01;30.51;101766.50;5025267;28;45420;-53
2022/04/03 11:00:29;;;;;;;;;4.50;4.50;;;;;8.79;31.45;101771.59;5026937;27;45569;-51
2022/04/03 11:02:55;;;;;;;;;3.00;3.00;;;;;8.81;30.82;101771.53;4981856;27;45644;-54
2022/04/03 11:05:24;;;;;;;;;0.00;0.00;;;;;8.88;31.56;101770.44;5069899;28;45392;-52
2022/04/03 11:07:53;;;;;;;;;2.00;2.00;;;;;9.04;30.09;101749.63;5077332;27;45226;-61
2022/04/03 11:10:56;;;;;;;;;1.75;1.00;;;;;9.19;30.31;101764.19;5077219;27;45387;-54
2022/04/03 11:13:31;;;;;;;;;2.00;2.00;;;;;9.19;29.76;101759.75;5005478;27;45958;-53
2022/04/03 11:16:02;;;;;;;;;4.50;2.00;;;;;9.14;30.60;101743.97;4974501;28;45378;-53
2022/04/03 11:18:43;;;;;;;;;1.25;1.25;;;;;9.25;30.19;101748.94;4972592;28;46902;-54
2022/04/03 11:21:16;;;;;;;;;10.00;6.00;;;;;9.42;29.68;101740.41;4975004;28;45310;-52
2022/04/03 11:23:52;;;;;;;;;6.00;3.00;;;;;9.49;29.45;101728.66;4992806;28;45240;-53